createdAt,value
2022-08-23T00:01:43.540Z,65.00
2022-08-23T00:04:14.876Z,65.20
2022-08-23T00:06:48.133Z,65.10
2022-08-23T00:09:23.002Z,65.80
2022-08-23T00:11:53.290Z,65.10
2022-08-23T00:14:24.889Z,65.00
2022-08-23T00:16:53.970Z,65.00
2022-08-23T00:19:23.698Z,65.10
2022-08-23T00:21:54.735Z,65.00
2022-08-23T00:24:25.450Z,65.00
2022-08-23T00:26:56.867Z,65.00
2022-08-23T00:29:27.956Z,65.00
2022-08-23T00:31:56.129Z,65.00
2022-08-23T00:34:24.611Z,65.00
2022-08-23T00:36:53.279Z,65.00
2022-08-23T00:39:23.348Z,65.10
2022-08-23T00:41:52.216Z,65.00
2022-08-23T00:44:51.210Z,65.00
2022-08-23T00:47:37.260Z,65.00
2022-08-23T00:50:23.472Z,65.00
2022-08-23T00:52:58.274Z,65.00
2022-08-23T00:55:29.057Z,65.00
2022-08-23T00:57:58.001Z,65.00
2022-08-23T01:00:26.791Z,65.00
2022-08-23T01:02:55.592Z,65.10
2022-08-23T01:05:29.261Z,65.00
2022-08-23T01:08:01.056Z,65.00
2022-08-23T01:10:38.693Z,65.00
2022-08-23T01:13:18.127Z,65.00
2022-08-23T01:15:49.884Z,65.00
2022-08-23T01:18:22.896Z,64.90
2022-08-23T01:20:57.123Z,64.90
2022-08-23T01:23:37.501Z,65.00
2022-08-23T01:26:08.240Z,64.90
2022-08-23T01:28:40.797Z,65.00
2022-08-23T01:31:16.274Z,65.00
2022-08-23T01:33:47.282Z,65.10
2022-08-23T01:36:17.126Z,65.00
2022-08-23T01:38:49.861Z,65.00
2022-08-23T01:41:17.983Z,65.00
2022-08-23T01:43:46.273Z,65.00
2022-08-23T01:46:17.990Z,65.00
2022-08-23T01:48:46.810Z,65.00
2022-08-23T01:51:16.512Z,65.00
2022-08-23T01:53:48.297Z,64.90
2022-08-23T01:56:19.974Z,65.00
2022-08-23T01:58:56.126Z,64.90
2022-08-23T02:01:24.127Z,64.90
2022-08-23T02:04:04.937Z,64.90
2022-08-23T02:06:33.879Z,64.90
2022-08-23T02:09:03.907Z,64.90
2022-08-23T02:11:34.850Z,65.70
2022-08-23T02:14:05.550Z,64.90
2022-08-23T02:16:35.819Z,64.90
2022-08-23T02:19:06.076Z,64.90
2022-08-23T02:21:35.112Z,65.60
2022-08-23T02:24:07.998Z,65.00
2022-08-23T02:26:37.167Z,64.90
2022-08-23T02:29:05.943Z,65.00
2022-08-23T02:31:34.087Z,65.70
2022-08-23T02:36:49.528Z,64.80
2022-08-23T02:39:19.613Z,64.90
2022-08-23T02:41:47.832Z,65.00
2022-08-23T02:44:15.711Z,65.00
2022-08-23T02:46:44.256Z,65.00
2022-08-23T02:49:12.654Z,65.80
2022-08-23T02:51:41.444Z,65.10
2022-08-23T02:54:11.485Z,65.80
2022-08-23T02:56:41.056Z,65.00
2022-08-23T02:59:08.929Z,65.00
2022-08-23T03:01:40.224Z,65.00
2022-08-23T03:04:10.386Z,65.00
2022-08-23T03:06:39.405Z,65.00
2022-08-23T03:09:08.207Z,65.00
2022-08-23T03:11:36.573Z,64.90
2022-08-23T03:14:05.917Z,64.90
2022-08-23T03:16:33.726Z,64.90
2022-08-23T03:19:02.271Z,64.90
2022-08-23T03:21:30.075Z,65.00
2022-08-23T03:24:00.725Z,64.90
2022-08-23T03:26:28.663Z,64.90
2022-08-23T03:28:56.742Z,65.70
2022-08-23T03:31:25.985Z,65.10
2022-08-23T03:33:58.513Z,65.20
2022-08-23T03:36:27.856Z,65.00
2022-08-23T03:38:56.762Z,65.10
2022-08-23T03:41:25.129Z,65.10
2022-08-23T03:43:53.089Z,65.10
2022-08-23T03:46:24.041Z,65.00
2022-08-23T03:48:55.534Z,65.10
2022-08-23T03:51:24.159Z,65.10
2022-08-23T03:53:52.813Z,65.20
2022-08-23T03:56:25.148Z,65.20
2022-08-23T03:58:53.659Z,65.20
2022-08-23T04:01:25.214Z,65.10
2022-08-23T04:03:59.897Z,65.10
2022-08-23T04:06:28.401Z,65.10
2022-08-23T04:08:57.234Z,65.20
2022-08-23T04:11:27.571Z,65.20
2022-08-23T04:13:56.084Z,65.20
2022-08-23T04:16:23.981Z,65.30
2022-08-23T04:18:51.789Z,65.30
2022-08-23T04:21:23.554Z,65.30
2022-08-23T04:23:52.821Z,65.40
2022-08-23T04:26:23.060Z,65.30
2022-08-23T04:28:54.007Z,65.40
2022-08-23T04:31:22.700Z,65.40
2022-08-23T04:33:52.313Z,65.50
2022-08-23T04:36:23.389Z,65.50
2022-08-23T04:38:51.818Z,65.50
2022-08-23T04:41:37.833Z,65.50
2022-08-23T04:44:06.243Z,65.40
2022-08-23T04:46:34.165Z,65.40
2022-08-23T04:49:02.441Z,65.30
2022-08-23T04:51:31.609Z,65.30
2022-08-23T04:53:59.619Z,65.20
2022-08-23T04:56:28.349Z,65.40
2022-08-23T04:58:56.413Z,65.50
2022-08-23T05:01:28.166Z,65.60
2022-08-23T05:04:00.433Z,65.60
2022-08-23T05:06:31.170Z,65.60
2022-08-23T05:09:05.437Z,65.60
2022-08-23T05:11:35.277Z,65.60
2022-08-23T05:14:03.162Z,65.60
2022-08-23T05:16:31.168Z,65.70
2022-08-23T05:19:03.031Z,65.70
2022-08-23T05:21:31.099Z,65.70
2022-08-23T05:24:13.552Z,65.80
2022-08-23T05:26:42.518Z,65.70
2022-08-23T05:29:12.276Z,65.70
2022-08-23T05:31:49.899Z,65.70
2022-08-23T05:34:26.223Z,65.60
2022-08-23T05:36:55.636Z,65.60
2022-08-23T05:39:33.702Z,65.60
2022-08-23T05:42:06.125Z,65.60
2022-08-23T05:44:36.600Z,65.60
2022-08-23T05:47:12.496Z,65.60
2022-08-23T05:49:43.215Z,65.60
2022-08-23T05:52:18.559Z,65.60
2022-08-23T05:54:47.725Z,65.60
2022-08-23T05:57:15.641Z,65.60
2022-08-23T05:59:43.474Z,65.60
2022-08-23T06:02:11.676Z,65.60
2022-08-23T06:04:39.483Z,65.70
2022-08-23T06:07:07.480Z,65.70
2022-08-23T06:09:35.538Z,65.50
2022-08-23T06:12:05.170Z,65.50
2022-08-23T06:14:32.964Z,65.60
2022-08-23T06:17:01.143Z,65.50
2022-08-23T06:19:29.056Z,65.30
2022-08-23T06:21:56.922Z,65.20
2022-08-23T06:24:25.657Z,65.10
2022-08-23T06:26:53.941Z,65.00
2022-08-23T06:29:23.176Z,65.60
2022-08-23T06:31:52.852Z,64.80
2022-08-23T06:34:23.288Z,64.70
2022-08-23T06:36:53.455Z,64.50
2022-08-23T06:39:23.322Z,64.50
2022-08-23T06:41:52.062Z,64.40
2022-08-23T06:44:21.123Z,64.20
2022-08-23T06:46:50.359Z,64.30
2022-08-23T06:49:18.391Z,64.20
2022-08-23T06:51:50.358Z,64.20
2022-08-23T06:54:22.665Z,64.30
2022-08-23T06:56:54.631Z,64.30
2022-08-23T06:59:23.222Z,64.30
2022-08-23T07:01:55.122Z,64.30
2022-08-23T07:04:25.705Z,64.30
2022-08-23T07:06:53.610Z,64.40
2022-08-23T07:09:21.425Z,64.40
2022-08-23T07:11:49.322Z,64.40
2022-08-23T07:14:19.459Z,64.40
2022-08-23T07:16:49.854Z,64.50
2022-08-23T07:19:20.848Z,64.50
2022-08-23T07:21:49.867Z,64.50
2022-08-23T07:24:18.679Z,64.50
2022-08-23T07:26:47.757Z,64.40
2022-08-23T07:29:17.441Z,64.40
2022-08-23T07:31:47.993Z,64.40
2022-08-23T07:34:19.311Z,64.40
2022-08-23T07:36:49.951Z,64.40
2022-08-23T07:39:18.677Z,64.30
2022-08-23T07:41:46.987Z,65.10
2022-08-23T07:44:18.180Z,64.20
2022-08-23T07:46:49.027Z,64.30
2022-08-23T07:49:17.611Z,64.20
2022-08-23T07:51:49.135Z,64.20
2022-08-23T07:54:18.130Z,64.00
2022-08-23T07:56:46.682Z,63.90
2022-08-23T07:59:15.442Z,63.90
2022-08-23T08:01:44.556Z,64.00
2022-08-23T08:04:12.840Z,64.00
2022-08-23T08:06:42.916Z,64.00
2022-08-23T08:09:13.639Z,63.90
2022-08-23T08:11:44.370Z,63.70
2022-08-23T08:14:12.939Z,63.70
2022-08-23T08:16:44.008Z,63.80
2022-08-23T08:19:15.268Z,64.50
2022-08-23T08:21:47.104Z,63.80
2022-08-23T08:24:17.972Z,63.80
2022-08-23T08:26:47.014Z,63.80
2022-08-23T08:29:15.520Z,64.00
2022-08-23T08:31:54.116Z,63.90
2022-08-23T08:34:22.615Z,64.10
2022-08-23T08:36:53.719Z,64.20
2022-08-23T08:39:25.800Z,64.20
2022-08-23T08:42:09.600Z,64.30
2022-08-23T08:44:42.252Z,64.30
2022-08-23T08:47:15.389Z,64.40
2022-08-23T08:49:48.650Z,64.50
2022-08-23T08:52:21.149Z,64.40
2022-08-23T08:54:53.261Z,64.10
2022-08-23T08:57:27.418Z,64.10
2022-08-23T09:00:03.966Z,64.30
2022-08-23T09:02:34.870Z,64.10
2022-08-23T09:05:06.758Z,64.00
2022-08-23T09:07:47.360Z,64.00
2022-08-23T09:10:34.907Z,64.00
2022-08-23T09:13:32.714Z,63.90
2022-08-23T09:16:12.032Z,63.90
2022-08-23T09:18:40.127Z,63.90
2022-08-23T09:21:12.067Z,63.90
2022-08-23T09:23:42.884Z,63.80
2022-08-23T09:26:24.298Z,63.70
2022-08-23T09:28:56.195Z,63.60
2022-08-23T09:31:45.396Z,63.60
2022-08-23T09:34:19.628Z,63.50
2022-08-23T09:36:49.013Z,63.50
2022-08-23T09:39:30.724Z,63.50
2022-08-23T09:42:01.239Z,63.30
2022-08-23T09:44:37.284Z,63.40
2022-08-23T09:47:08.782Z,63.30
2022-08-23T09:49:37.200Z,63.50
2022-08-23T09:52:22.249Z,63.10
2022-08-23T09:55:27.616Z,63.20
2022-08-23T09:57:57.771Z,63.10
2022-08-23T10:00:28.869Z,63.80
2022-08-23T10:03:22.515Z,63.00
2022-08-23T10:05:53.360Z,62.90
2022-08-23T10:08:27.420Z,62.90
2022-08-23T10:11:03.645Z,62.90
2022-08-23T10:13:33.633Z,62.90
2022-08-23T10:16:11.817Z,62.60
2022-08-23T10:18:54.390Z,62.50
2022-08-23T10:21:41.804Z,62.60
2022-08-23T10:24:18.650Z,62.60
2022-08-23T10:26:59.396Z,62.50
2022-08-23T10:29:39.146Z,62.40
2022-08-23T10:32:18.703Z,62.40
2022-08-23T10:35:00.950Z,62.30
2022-08-23T10:37:43.214Z,62.30
2022-08-23T10:40:19.508Z,62.30
2022-08-23T10:42:58.684Z,62.30
2022-08-23T10:45:29.154Z,62.20
2022-08-23T10:48:09.072Z,62.00
2022-08-23T10:50:52.065Z,62.00
2022-08-23T10:53:28.372Z,61.90
2022-08-23T10:56:07.949Z,61.80
2022-08-23T10:58:41.453Z,61.60
2022-08-23T11:01:11.824Z,61.50
2022-08-23T11:03:48.185Z,61.70
2022-08-23T11:06:44.792Z,61.70
2022-08-23T11:09:32.823Z,61.70
2022-08-23T11:12:14.717Z,61.60
2022-08-23T11:14:47.013Z,61.70
2022-08-23T11:17:28.803Z,61.50
2022-08-23T11:19:59.081Z,61.20
2022-08-23T11:22:31.917Z,61.30
2022-08-23T11:25:04.205Z,61.10
2022-08-23T11:27:37.277Z,61.10
2022-08-23T11:30:45.328Z,61.10
2022-08-23T11:33:23.750Z,60.90
2022-08-23T11:35:53.938Z,60.90
2022-08-23T11:38:57.077Z,60.70
2022-08-23T11:41:32.747Z,60.70
2022-08-23T11:44:24.037Z,60.70
2022-08-23T11:47:04.447Z,60.40
2022-08-23T11:49:48.626Z,60.40
2022-08-23T11:52:47.356Z,60.40
2022-08-23T11:55:42.306Z,60.40
2022-08-23T11:58:23.751Z,60.50
2022-08-23T12:01:31.641Z,60.50
2022-08-23T12:04:08.428Z,60.60
2022-08-23T12:06:42.492Z,60.60
2022-08-23T12:09:56.737Z,60.70
2022-08-23T12:12:32.466Z,60.50
2022-08-23T12:15:08.564Z,60.50
2022-08-23T12:17:57.157Z,60.10
2022-08-23T12:20:32.368Z,60.00
2022-08-23T12:23:18.532Z,60.00
2022-08-23T12:25:46.546Z,60.00
2022-08-23T12:28:38.071Z,59.90
2022-08-23T12:31:18.823Z,59.90
2022-08-23T12:34:09.693Z,59.90
2022-08-23T12:36:45.007Z,59.80
2022-08-23T12:39:24.641Z,59.80
2022-08-23T12:41:59.026Z,59.70
2022-08-23T12:44:28.733Z,59.80
2022-08-23T12:46:58.926Z,59.70
2022-08-23T12:49:30.485Z,59.70
2022-08-23T12:52:02.378Z,59.60
2022-08-23T12:54:40.154Z,59.70
2022-08-23T12:57:12.952Z,59.60
2022-08-23T12:59:46.651Z,59.60
2022-08-23T13:02:26.009Z,59.60
2022-08-23T13:04:57.090Z,59.50
2022-08-23T13:07:26.705Z,59.50
2022-08-23T13:09:56.657Z,59.30
2022-08-23T13:12:28.529Z,59.30
2022-08-23T13:15:03.060Z,59.20
2022-08-23T13:17:39.870Z,59.30
2022-08-23T13:20:28.736Z,59.30
2022-08-23T13:23:03.116Z,59.30
2022-08-23T13:25:33.710Z,59.30
2022-08-23T13:28:06.367Z,59.20
2022-08-23T13:30:37.177Z,59.20
2022-08-23T13:33:23.356Z,59.20
2022-08-23T13:35:53.540Z,59.10
2022-08-23T13:38:28.167Z,59.20
2022-08-23T13:41:22.369Z,59.10
2022-08-23T13:43:52.490Z,59.10
2022-08-23T13:46:23.172Z,59.00
2022-08-23T13:48:59.246Z,59.00
2022-08-23T13:51:31.679Z,58.90
2022-08-23T13:54:06.363Z,58.90
2022-08-23T13:56:39.242Z,58.70
2022-08-23T13:59:20.465Z,58.70
2022-08-23T14:01:48.723Z,58.70
2022-08-23T14:04:18.016Z,58.70
2022-08-23T14:06:49.032Z,58.70
2022-08-23T14:09:17.753Z,58.60
2022-08-23T14:11:48.016Z,58.70
2022-08-23T14:14:16.252Z,58.60
2022-08-23T14:16:44.249Z,58.70
2022-08-23T14:19:54.353Z,58.60
2022-08-23T14:22:03.050Z,58.60
2022-08-23T14:24:33.803Z,58.30
2022-08-23T14:27:01.971Z,58.90
2022-08-23T14:29:30.353Z,58.30
2022-08-23T14:32:00.084Z,58.30
2022-08-23T14:38:03.734Z,58.50
2022-08-23T14:40:32.025Z,58.40
2022-08-23T14:43:05.442Z,58.40
2022-08-23T14:45:35.846Z,58.30
2022-08-23T14:48:06.400Z,58.30
2022-08-23T14:50:41.779Z,58.40
2022-08-23T14:53:11.868Z,58.20
2022-08-23T14:55:44.222Z,58.20
2022-08-23T14:58:17.221Z,58.20
2022-08-23T15:00:46.697Z,58.20
2022-08-23T15:03:19.450Z,58.30
2022-08-23T15:05:49.944Z,58.30
2022-08-23T15:08:21.199Z,58.40
2022-08-23T15:14:00.039Z,58.30
2022-08-23T15:16:30.764Z,58.50
2022-08-23T15:19:00.864Z,58.40
2022-08-23T15:21:29.068Z,58.50
2022-08-23T15:24:00.867Z,58.50
2022-08-23T15:26:31.204Z,58.50
2022-08-23T15:29:01.773Z,58.50
2022-08-23T15:31:30.124Z,58.50
2022-08-23T15:33:58.158Z,58.40
2022-08-23T15:36:26.478Z,58.40
2022-08-23T15:38:54.475Z,58.40
2022-08-23T15:41:28.198Z,58.30
2022-08-23T15:43:56.109Z,58.40
2022-08-23T15:46:25.286Z,58.40
2022-08-23T15:48:56.975Z,58.40
2022-08-23T15:51:27.366Z,58.20
2022-08-23T15:53:56.565Z,58.30
2022-08-23T15:56:31.359Z,58.30
2022-08-23T15:58:59.679Z,58.20
2022-08-23T16:01:33.639Z,58.30
2022-08-23T16:04:02.340Z,58.30
2022-08-23T16:06:56.795Z,58.30
2022-08-23T16:09:25.599Z,58.30
2022-08-23T16:11:59.642Z,58.20
2022-08-23T16:14:28.263Z,58.30
2022-08-23T16:16:56.152Z,58.30
2022-08-23T16:19:24.366Z,58.30
2022-08-23T16:21:55.004Z,58.20
2022-08-23T16:24:24.785Z,58.30
2022-08-23T16:26:54.666Z,58.10
2022-08-23T16:29:23.938Z,58.00
2022-08-23T16:31:51.967Z,58.00
2022-08-23T16:34:25.163Z,58.10
2022-08-23T16:36:57.784Z,58.20
2022-08-23T16:39:26.983Z,58.10
2022-08-23T16:41:57.145Z,58.10
2022-08-23T16:44:26.488Z,58.10
2022-08-23T16:46:54.514Z,58.10
2022-08-23T16:49:27.817Z,58.20
2022-08-23T16:51:56.065Z,58.10
2022-08-23T16:54:24.124Z,58.10
2022-08-23T16:56:51.997Z,58.10
2022-08-23T16:59:23.063Z,58.10
2022-08-23T17:02:01.525Z,58.10
2022-08-23T17:04:38.725Z,58.20
2022-08-23T17:07:07.437Z,58.10
2022-08-23T17:09:38.459Z,58.10
2022-08-23T17:12:06.823Z,58.20
2022-08-23T17:14:36.101Z,58.10
2022-08-23T17:17:16.589Z,58.20
2022-08-23T17:19:45.068Z,58.20
2022-08-23T17:22:13.706Z,58.20
2022-08-23T17:24:41.775Z,58.20
2022-08-23T17:27:09.642Z,58.20
2022-08-23T17:29:48.251Z,58.20
2022-08-23T17:32:19.513Z,58.20
2022-08-23T17:34:47.397Z,58.30
2022-08-23T17:37:17.553Z,58.20
2022-08-23T17:39:45.526Z,58.30
2022-08-23T17:42:15.869Z,58.30
2022-08-23T17:44:43.863Z,58.30
2022-08-23T17:47:16.648Z,58.40
2022-08-23T17:49:45.281Z,58.40
2022-08-23T17:52:15.660Z,59.00
2022-08-23T17:54:44.423Z,58.50
2022-08-23T17:57:13.227Z,58.50
2022-08-23T17:59:41.430Z,58.50
2022-08-23T18:02:09.275Z,58.60
2022-08-23T18:04:38.727Z,58.60
2022-08-23T18:07:07.382Z,58.60
2022-08-23T18:09:38.895Z,58.70
2022-08-23T18:12:11.365Z,58.70
2022-08-23T18:14:39.284Z,58.80
2022-08-23T18:17:07.186Z,58.80
2022-08-23T18:19:35.163Z,58.80
2022-08-23T18:22:05.206Z,58.90
2022-08-23T18:24:33.371Z,58.90
2022-08-23T18:27:21.487Z,58.90
2022-08-23T18:29:51.731Z,59.00
2022-08-23T18:32:20.699Z,59.00
2022-08-23T18:34:48.590Z,59.00
2022-08-23T18:37:21.722Z,58.90
2022-08-23T18:39:49.873Z,58.80
2022-08-23T18:42:20.968Z,59.00
2022-08-23T18:44:48.982Z,59.00
2022-08-23T18:47:17.158Z,59.00
2022-08-23T18:49:45.129Z,59.10
2022-08-23T18:52:13.401Z,59.10
2022-08-23T18:54:43.308Z,59.10
2022-08-23T18:57:16.161Z,59.20
2022-08-23T18:59:44.387Z,59.20
2022-08-23T19:02:12.468Z,59.30
2022-08-23T19:04:40.383Z,59.20
2022-08-23T19:07:08.485Z,59.30
2022-08-23T19:09:36.907Z,59.90
2022-08-23T19:12:08.325Z,59.20
2022-08-23T19:14:36.391Z,59.30
2022-08-23T19:17:04.790Z,59.30
2022-08-23T19:19:34.349Z,59.30
2022-08-23T19:22:03.421Z,59.20
2022-08-23T19:24:31.868Z,59.20
2022-08-23T19:26:59.867Z,59.30
2022-08-23T19:29:29.058Z,59.10
2022-08-23T19:32:02.848Z,59.20
2022-08-23T19:34:31.003Z,59.30
2022-08-23T19:37:01.510Z,59.20
2022-08-23T19:39:30.361Z,59.30
2022-08-23T19:41:59.009Z,59.30
2022-08-23T19:44:31.217Z,59.30
2022-08-23T19:47:00.878Z,59.30
2022-08-23T19:49:29.011Z,59.30
2022-08-23T19:51:56.919Z,59.30
2022-08-23T19:54:26.008Z,59.30
2022-08-23T19:56:57.529Z,59.30
2022-08-23T19:59:33.243Z,59.20
2022-08-23T20:02:01.865Z,59.10
2022-08-23T20:04:31.597Z,59.10
2022-08-23T20:07:00.756Z,59.20
2022-08-23T20:09:30.389Z,59.20
2022-08-23T20:11:59.340Z,59.30
2022-08-23T20:14:31.230Z,59.40
2022-08-23T20:17:03.236Z,59.30
2022-08-23T20:19:31.409Z,59.40
2022-08-23T20:22:20.256Z,59.30
2022-08-23T20:24:52.095Z,59.40
2022-08-23T20:27:25.421Z,59.40
2022-08-23T20:29:59.818Z,59.50
2022-08-23T20:32:29.421Z,59.40
2022-08-23T20:35:00.605Z,59.40
2022-08-23T20:37:29.150Z,59.50
2022-08-23T20:39:57.469Z,59.50
2022-08-23T20:42:26.012Z,59.50
2022-08-23T20:44:53.934Z,59.50
2022-08-23T20:47:22.638Z,59.60
2022-08-23T20:49:52.066Z,59.50
2022-08-23T20:52:22.180Z,59.50
2022-08-23T20:54:58.802Z,59.50
2022-08-23T20:57:28.672Z,59.50
2022-08-23T21:00:05.656Z,59.40
2022-08-23T21:02:33.491Z,59.50
2022-08-23T21:05:06.412Z,59.50
2022-08-23T21:07:36.834Z,59.50
2022-08-23T21:10:05.490Z,59.50
2022-08-23T21:12:33.272Z,59.50
2022-08-23T21:15:01.161Z,59.60
2022-08-23T21:17:29.007Z,59.60
2022-08-23T21:19:57.110Z,59.60
2022-08-23T21:22:32.008Z,59.60
2022-08-23T21:25:00.319Z,59.70
2022-08-23T21:27:28.400Z,59.70
2022-08-23T21:29:56.231Z,59.60
2022-08-23T21:32:24.092Z,59.60
2022-08-23T21:34:52.140Z,59.60
2022-08-23T21:37:20.146Z,59.60
2022-08-23T21:39:50.997Z,59.50
2022-08-23T21:42:23.833Z,59.60
2022-08-23T21:44:52.612Z,59.70
2022-08-23T21:47:20.935Z,59.70
2022-08-23T21:49:48.949Z,59.70
2022-08-23T21:52:17.016Z,59.60
2022-08-23T21:54:46.327Z,59.70
2022-08-23T21:57:21.107Z,59.70
2022-08-23T21:59:49.496Z,59.60
2022-08-23T22:02:17.557Z,59.60
2022-08-23T22:04:49.152Z,59.60
2022-08-23T22:07:17.185Z,59.70
2022-08-23T22:09:46.160Z,59.80
2022-08-23T22:12:15.812Z,60.40
2022-08-23T22:14:43.707Z,59.80
2022-08-23T22:17:11.772Z,59.70
2022-08-23T22:19:39.678Z,59.70
2022-08-23T22:22:07.676Z,59.80
2022-08-23T22:24:35.691Z,59.70
2022-08-23T22:27:03.566Z,59.80
2022-08-23T22:29:32.826Z,59.80
2022-08-23T22:32:00.919Z,59.80
2022-08-23T22:34:28.804Z,59.80
2022-08-23T22:36:56.787Z,59.80
2022-08-23T22:39:25.313Z,59.90
2022-08-23T22:41:55.654Z,60.00
2022-08-23T22:44:23.613Z,59.80
2022-08-23T22:46:55.969Z,60.00
2022-08-23T22:49:23.800Z,59.90
2022-08-23T22:51:55.282Z,59.90
2022-08-23T22:54:24.732Z,59.90
2022-08-23T22:56:53.979Z,59.90
2022-08-23T22:59:27.614Z,60.00
2022-08-23T23:02:05.340Z,60.10
2022-08-23T23:04:33.878Z,60.00
2022-08-23T23:07:01.819Z,60.10
2022-08-23T23:09:29.992Z,60.60
2022-08-23T23:11:57.874Z,60.10
2022-08-23T23:14:25.693Z,60.20
2022-08-23T23:16:54.147Z,60.20
2022-08-23T23:19:41.195Z,60.20
2022-08-23T23:22:10.720Z,60.20
2022-08-23T23:24:40.772Z,60.20
2022-08-23T23:27:09.264Z,60.20
2022-08-23T23:29:38.473Z,60.30
2022-08-23T23:32:06.823Z,60.20
2022-08-23T23:34:37.979Z,60.20
2022-08-23T23:37:06.217Z,60.30
2022-08-23T23:39:34.546Z,60.40
2022-08-23T23:42:02.439Z,60.40
2022-08-23T23:44:31.013Z,60.40
2022-08-23T23:47:00.531Z,60.50
2022-08-23T23:49:32.204Z,60.50
2022-08-23T23:52:04.469Z,60.60
2022-08-23T23:54:33.966Z,60.50
2022-08-23T23:57:02.331Z,60.60
2022-08-23T23:59:30.474Z,60.60
